sensor_id;sensor_type;location;lat;lon;timestamp;pressure;altitude;pressure_sealevel;temperature;humidity
54546;BME280;40444;45.184;9.850;2023-05-20T00:01:23;101011.72;;;14.84;100.00
54546;BME280;40444;45.184;9.850;2023-05-20T00:03:51;101006.16;;;14.86;100.00
54546;BME280;40444;45.184;9.850;2023-05-20T00:06:20;101004.00;;;14.89;100.00
54546;BME280;40444;45.184;9.850;2023-05-20T00:08:49;101003.00;;;14.90;100.00
54546;BME280;40444;45.184;9.850;2023-05-20T00:11:17;101012.63;;;14.93;100.00
54546;BME280;40444;45.184;9.850;2023-05-20T00:13:46;101011.94;;;14.91;100.00
54546;BME280;40444;45.184;9.850;2023-05-20T00:16:14;101011.78;;;14.93;100.00
54546;BME280;40444;45.184;9.850;2023-05-20T00:18:42;101002.84;;;14.92;100.00
54546;BME280;40444;45.184;9.850;2023-05-20T00:21:11;100999.16;;;14.93;100.00
54546;BME280;40444;45.184;9.850;2023-05-20T00:23:39;101007.25;;;14.93;100.00
54546;BME280;40444;45.184;9.850;2023-05-20T00:26:07;101000.69;;;14.96;100.00
54546;BME280;40444;45.184;9.850;2023-05-20T00:28:36;100994.44;;;14.95;100.00
54546;BME280;40444;45.184;9.850;2023-05-20T00:31:04;100997.00;;;14.97;100.00
54546;BME280;40444;45.184;9.850;2023-05-20T00:33:33;100993.44;;;14.96;100.00
54546;BME280;40444;45.184;9.850;2023-05-20T00:36:03;100988.06;;;14.96;100.00
54546;BME280;40444;45.184;9.850;2023-05-20T00:38:33;100997.84;;;14.97;100.00
54546;BME280;40444;45.184;9.850;2023-05-20T00:41:01;100991.59;;;14.97;100.00
54546;BME280;40444;45.184;9.850;2023-05-20T00:43:30;100990.75;;;14.96;100.00
54546;BME280;40444;45.184;9.850;2023-05-20T00:45:59;100990.75;;;14.96;100.00
54546;BME280;40444;45.184;9.850;2023-05-20T00:48:35;101001.53;;;14.96;100.00
54546;BME280;40444;45.184;9.850;2023-05-20T00:51:07;100978.25;;;14.95;100.00
54546;BME280;40444;45.184;9.850;2023-05-20T00:53:35;100984.50;;;14.96;100.00
54546;BME280;40444;45.184;9.850;2023-05-20T00:56:05;100980.94;;;14.95;100.00
54546;BME280;40444;45.184;9.850;2023-05-20T00:58:34;100979.78;;;14.98;100.00
54546;BME280;40444;45.184;9.850;2023-05-20T01:01:05;100986.88;;;14.99;100.00
54546;BME280;40444;45.184;9.850;2023-05-20T01:03:33;100985.03;;;14.99;100.00
54546;BME280;40444;45.184;9.850;2023-05-20T01:06:02;100980.47;;;15.00;100.00
54546;BME280;40444;45.184;9.850;2023-05-20T01:08:31;100978.78;;;14.99;100.00
54546;BME280;40444;45.184;9.850;2023-05-20T01:11:10;100974.41;;;14.98;100.00
54546;BME280;40444;45.184;9.850;2023-05-20T01:13:48;100971.03;;;14.96;100.00
54546;BME280;40444;45.184;9.850;2023-05-20T01:16:19;100972.72;;;14.97;100.00
54546;BME280;40444;45.184;9.850;2023-05-20T01:18:52;100971.03;;;14.96;100.00
54546;BME280;40444;45.184;9.850;2023-05-20T01:21:23;100967.31;;;14.97;100.00
54546;BME280;40444;45.184;9.850;2023-05-20T01:23:52;100952.97;;;14.96;100.00
54546;BME280;40444;45.184;9.850;2023-05-20T01:26:21;100952.13;;;14.96;100.00
54546;BME280;40444;45.184;9.850;2023-05-20T01:28:54;100952.13;;;14.96;100.00
54546;BME280;40444;45.184;9.850;2023-05-20T01:31:26;100941.34;;;14.96;100.00
54546;BME280;40444;45.184;9.850;2023-05-20T01:33:57;100943.03;;;14.97;100.00
54546;BME280;40444;45.184;9.850;2023-05-20T01:36:29;100945.72;;;14.97;100.00
54546;BME280;40444;45.184;9.850;2023-05-20T01:38:59;100947.59;;;14.96;100.00
54546;BME280;40444;45.184;9.850;2023-05-20T01:41:30;100951.25;;;14.95;100.00
54546;BME280;40444;45.184;9.850;2023-05-20T01:44:01;100952.97;;;14.96;100.00
54546;BME280;40444;45.184;9.850;2023-05-20T01:46:33;100952.13;;;14.96;100.00
54546;BME280;40444;45.184;9.850;2023-05-20T01:49:02;100946.56;;;14.97;100.00
54546;BME280;40444;45.184;9.850;2023-05-20T01:51:31;100938.47;;;14.97;100.00
54546;BME280;40444;45.184;9.850;2023-05-20T01:54:02;100938.47;;;14.97;100.00
54546;BME280;40444;45.184;9.850;2023-05-20T01:56:31;100938.47;;;14.97;100.00
54546;BME280;40444;45.184;9.850;2023-05-20T01:58:59;100931.22;;;14.98;100.00
54546;BME280;40444;45.184;9.850;2023-05-20T02:01:28;100930.22;;;14.99;100.00
54546;BME280;40444;45.184;9.850;2023-05-20T02:03:56;100926.66;;;14.98;100.00
54546;BME280;40444;45.184;9.850;2023-05-20T02:06:25;100928.53;;;14.98;100.00
54546;BME280;40444;45.184;9.850;2023-05-20T02:08:55;100926.00;;;14.96;100.00
54546;BME280;40444;45.184;9.850;2023-05-20T02:11:23;100922.28;;;14.97;100.00
54546;BME280;40444;45.184;9.850;2023-05-20T02:13:55;100926.84;;;14.97;100.00
54546;BME280;40444;45.184;9.850;2023-05-20T02:16:23;100919.75;;;14.96;100.00
54546;BME280;40444;45.184;9.850;2023-05-20T02:18:52;100914.34;;;14.96;100.00
54546;BME280;40444;45.184;9.850;2023-05-20T02:21:20;100917.19;;;14.94;100.00
54546;BME280;40444;45.184;9.850;2023-05-20T02:23:50;100919.53;;;14.89;100.00
54546;BME280;40444;45.184;9.850;2023-05-20T02:26:20;100907.88;;;14.88;100.00
54546;BME280;40444;45.184;9.850;2023-05-20T02:28:49;100901.78;;;14.86;100.00
54546;BME280;40444;45.184;9.850;2023-05-20T02:31:21;100912.91;;;14.83;100.00
54546;BME280;40444;45.184;9.850;2023-05-20T02:33:50;100915.75;;;14.82;100.00
54546;BME280;40444;45.184;9.850;2023-05-20T02:36:18;100900.44;;;14.82;100.00
54546;BME280;40444;45.184;9.850;2023-05-20T02:38:47;100904.13;;;14.81;100.00
54546;BME280;40444;45.184;9.850;2023-05-20T02:41:15;100891.63;;;14.80;100.00
54546;BME280;40444;45.184;9.850;2023-05-20T02:43:43;100897.19;;;14.79;100.00
54546;BME280;40444;45.184;9.850;2023-05-20T02:46:13;100894.63;;;14.77;100.00
54546;BME280;40444;45.184;9.850;2023-05-20T02:48:43;100884.88;;;14.76;100.00
54546;BME280;40444;45.184;9.850;2023-05-20T02:51:11;100878.63;;;14.76;100.00
54546;BME280;40444;45.184;9.850;2023-05-20T02:53:40;100885.88;;;14.75;100.00
54546;BME280;40444;45.184;9.850;2023-05-20T02:56:09;100884.03;;;14.76;100.00
54546;BME280;40444;45.184;9.850;2023-05-20T02:58:38;100877.78;;;14.75;100.00
54546;BME280;40444;45.184;9.850;2023-05-20T03:01:07;100882.03;;;14.78;100.00
54546;BME280;40444;45.184;9.850;2023-05-20T03:03:36;100882.88;;;14.78;100.00
54546;BME280;40444;45.184;9.850;2023-05-20T03:06:08;100875.63;;;14.79;100.00
54546;BME280;40444;45.184;9.850;2023-05-20T03:08:37;100874.78;;;14.78;100.00
54546;BME280;40444;45.184;9.850;2023-05-20T03:11:07;100877.31;;;14.80;100.00
54546;BME280;40444;45.184;9.850;2023-05-20T03:13:35;100877.31;;;14.80;100.00
54546;BME280;40444;45.184;9.850;2023-05-20T03:16:05;100880.00;;;14.80;100.00
54546;BME280;40444;45.184;9.850;2023-05-20T03:18:34;100867.34;;;14.80;100.00
54546;BME280;40444;45.184;9.850;2023-05-20T03:21:04;100867.19;;;14.82;100.00
54546;BME280;40444;45.184;9.850;2023-05-20T03:23:34;100869.88;;;14.82;100.00
54546;BME280;40444;45.184;9.850;2023-05-20T03:26:02;100865.38;;;14.82;100.00
54546;BME280;40444;45.184;9.850;2023-05-20T03:28:33;100864.50;;;14.82;100.00
54546;BME280;40444;45.184;9.850;2023-05-20T03:31:01;100868.06;;;14.82;100.00
54546;BME280;40444;45.184;9.850;2023-05-20T03:33:33;100865.50;;;14.81;100.00
54546;BME280;40444;45.184;9.850;2023-05-20T03:36:03;100861.78;;;14.82;100.00
54546;BME280;40444;45.184;9.850;2023-05-20T03:38:32;100857.28;;;14.82;100.00
54546;BME280;40444;45.184;9.850;2023-05-20T03:41:00;100855.41;;;14.83;100.00
54546;BME280;40444;45.184;9.850;2023-05-20T03:43:29;100858.13;;;14.83;100.00
54546;BME280;40444;45.184;9.850;2023-05-20T03:45:58;100855.41;;;14.83;100.00
54546;BME280;40444;45.184;9.850;2023-05-20T03:48:28;100860.81;;;14.83;100.00
54546;BME280;40444;45.184;9.850;2023-05-20T03:50:57;100852.84;;;14.81;100.00
54546;BME280;40444;45.184;9.850;2023-05-20T03:53:25;100851.19;;;14.80;100.00
54546;BME280;40444;45.184;9.850;2023-05-20T03:55:55;100860.94;;;14.81;100.00
54546;BME280;40444;45.184;9.850;2023-05-20T03:58:23;100847.63;;;14.80;100.00
54546;BME280;40444;45.184;9.850;2023-05-20T04:00:53;100846.78;;;14.79;100.00
54546;BME280;40444;45.184;9.850;2023-05-20T04:03:22;100844.09;;;14.79;100.00
54546;BME280;40444;45.184;9.850;2023-05-20T04:05:51;100854.56;;;14.82;100.00
54546;BME280;40444;45.184;9.850;2023-05-20T04:08:21;100846.47;;;14.82;100.00
54546;BME280;40444;45.184;9.850;2023-05-20T04:10:59;100850.03;;;14.83;100.00
54546;BME280;40444;45.184;9.850;2023-05-20T04:13:28;100844.63;;;14.83;100.00
54546;BME280;40444;45.184;9.850;2023-05-20T04:15:56;100852.56;;;14.84;100.00
54546;BME280;40444;45.184;9.850;2023-05-20T04:18:25;100849.00;;;14.84;100.00
54546;BME280;40444;45.184;9.850;2023-05-20T04:20:57;100839.91;;;14.85;100.00
54546;BME280;40444;45.184;9.850;2023-05-20T04:23:27;100846.16;;;14.85;100.00
54546;BME280;40444;45.184;9.850;2023-05-20T04:25:56;100834.50;;;14.85;100.00
54546;BME280;40444;45.184;9.850;2023-05-20T04:28:31;100830.97;;;14.84;100.00
54546;BME280;40444;45.184;9.850;2023-05-20T04:31:00;100838.22;;;14.84;100.00
54546;BME280;40444;45.184;9.850;2023-05-20T04:33:35;100838.06;;;14.85;100.00
54546;BME280;40444;45.184;9.850;2023-05-20T04:36:09;100835.34;;;14.85;100.00
54546;BME280;40444;45.184;9.850;2023-05-20T04:38:40;100825.56;;;14.84;100.00
54546;BME280;40444;45.184;9.850;2023-05-20T04:41:09;100823.88;;;14.83;100.00
54546;BME280;40444;45.184;9.850;2023-05-20T04:43:38;100822.22;;;14.82;100.00
54546;BME280;40444;45.184;9.850;2023-05-20T04:46:07;100831.13;;;14.83;100.00
